sensor_id;sensor_type;location;lat;lon;timestamp;P1;durP1;ratioP1;P2;durP2;ratioP2
5519;SDS011;2782;52.362;10.012;2023-02-28T00:00:55;1.97;;;1.30;;
5519;SDS011;2782;52.362;10.012;2023-02-28T00:01:57;5.88;;;1.40;;
5519;SDS011;2782;52.362;10.012;2023-02-28T00:02:58;1.87;;;1.50;;
5519;SDS011;2782;52.362;10.012;2023-02-28T00:04:00;2.17;;;1.20;;
5519;SDS011;2782;52.362;10.012;2023-02-28T00:05:01;2.42;;;1.92;;
5519;SDS011;2782;52.362;10.012;2023-02-28T00:06:05;2.35;;;1.33;;
5519;SDS011;2782;52.362;10.012;2023-02-28T00:07:06;2.10;;;1.33;;
5519;SDS011;2782;52.362;10.012;2023-02-28T00:08:08;2.20;;;1.35;;
5519;SDS011;2782;52.362;10.012;2023-02-28T00:09:09;2.25;;;1.40;;
5519;SDS011;2782;52.362;10.012;2023-02-28T00:10:12;3.08;;;1.30;;
5519;SDS011;2782;52.362;10.012;2023-02-28T00:11:19;2.97;;;1.63;;
5519;SDS011;2782;52.362;10.012;2023-02-28T00:12:22;2.13;;;1.15;;
5519;SDS011;2782;52.362;10.012;2023-02-28T00:13:22;3.47;;;1.33;;
5519;SDS011;2782;52.362;10.012;2023-02-28T00:14:24;1.77;;;1.50;;
5519;SDS011;2782;52.362;10.012;2023-02-28T00:15:25;2.60;;;1.40;;
5519;SDS011;2782;52.362;10.012;2023-02-28T00:16:26;1.40;;;1.00;;
5519;SDS011;2782;52.362;10.012;2023-02-28T00:17:27;1.80;;;0.90;;
5519;SDS011;2782;52.362;10.012;2023-02-28T00:18:29;0.98;;;0.90;;
5519;SDS011;2782;52.362;10.012;2023-02-28T00:19:29;3.47;;;1.80;;
5519;SDS011;2782;52.362;10.012;2023-02-28T00:20:31;1.63;;;1.13;;
5519;SDS011;2782;52.362;10.012;2023-02-28T00:21:33;1.27;;;1.17;;
5519;SDS011;2782;52.362;10.012;2023-02-28T00:22:35;2.85;;;1.30;;
5519;SDS011;2782;52.362;10.012;2023-02-28T00:23:37;1.88;;;1.35;;
5519;SDS011;2782;52.362;10.012;2023-02-28T00:24:38;1.20;;;1.00;;
5519;SDS011;2782;52.362;10.012;2023-02-28T00:25:39;1.77;;;1.03;;
5519;SDS011;2782;52.362;10.012;2023-02-28T00:26:40;1.50;;;1.00;;
5519;SDS011;2782;52.362;10.012;2023-02-28T00:27:41;2.10;;;1.47;;
5519;SDS011;2782;52.362;10.012;2023-02-28T00:28:43;1.05;;;0.95;;
5519;SDS011;2782;52.362;10.012;2023-02-28T00:29:45;1.20;;;1.05;;
5519;SDS011;2782;52.362;10.012;2023-02-28T00:30:46;2.60;;;1.00;;
5519;SDS011;2782;52.362;10.012;2023-02-28T00:31:48;2.67;;;1.33;;
5519;SDS011;2782;52.362;10.012;2023-02-28T00:32:49;2.10;;;1.60;;
5519;SDS011;2782;52.362;10.012;2023-02-28T00:33:51;1.40;;;1.30;;
5519;SDS011;2782;52.362;10.012;2023-02-28T00:34:52;1.87;;;1.50;;
5519;SDS011;2782;52.362;10.012;2023-02-28T00:36:01;1.13;;;1.02;;
5519;SDS011;2782;52.362;10.012;2023-02-28T00:37:05;1.25;;;1.15;;
5519;SDS011;2782;52.362;10.012;2023-02-28T00:38:08;4.28;;;1.65;;
5519;SDS011;2782;52.362;10.012;2023-02-28T00:39:08;3.33;;;0.97;;
5519;SDS011;2782;52.362;10.012;2023-02-28T00:40:10;1.60;;;1.38;;
5519;SDS011;2782;52.362;10.012;2023-02-28T00:41:12;0.90;;;0.90;;
5519;SDS011;2782;52.362;10.012;2023-02-28T00:42:13;1.80;;;1.00;;
5519;SDS011;2782;52.362;10.012;2023-02-28T00:43:14;2.90;;;1.40;;
5519;SDS011;2782;52.362;10.012;2023-02-28T00:44:15;2.03;;;1.30;;
5519;SDS011;2782;52.362;10.012;2023-02-28T00:45:16;2.07;;;1.10;;
5519;SDS011;2782;52.362;10.012;2023-02-28T00:46:19;1.38;;;0.93;;
5519;SDS011;2782;52.362;10.012;2023-02-28T00:47:19;1.47;;;0.80;;
5519;SDS011;2782;52.362;10.012;2023-02-28T00:48:21;2.78;;;0.85;;
5519;SDS011;2782;52.362;10.012;2023-02-28T00:49:21;3.33;;;1.20;;
5519;SDS011;2782;52.362;10.012;2023-02-28T00:50:24;0.95;;;0.93;;
5519;SDS011;2782;52.362;10.012;2023-02-28T00:51:24;3.40;;;1.30;;
5519;SDS011;2782;52.362;10.012;2023-02-28T00:52:27;1.25;;;1.00;;
5519;SDS011;2782;52.362;10.012;2023-02-28T00:53:28;1.20;;;1.10;;
5519;SDS011;2782;52.362;10.012;2023-02-28T00:54:32;2.10;;;1.35;;
5519;SDS011;2782;52.362;10.012;2023-02-28T00:55:33;1.90;;;1.03;;
5519;SDS011;2782;52.362;10.012;2023-02-28T00:56:34;1.45;;;1.17;;
5519;SDS011;2782;52.362;10.012;2023-02-28T00:57:35;1.13;;;0.93;;
5519;SDS011;2782;52.362;10.012;2023-02-28T00:58:36;1.25;;;1.02;;
5519;SDS011;2782;52.362;10.012;2023-02-28T00:59:37;1.40;;;1.10;;
5519;SDS011;2782;52.362;10.012;2023-02-28T01:00:39;2.75;;;1.38;;
5519;SDS011;2782;52.362;10.012;2023-02-28T01:01:39;1.53;;;1.13;;
5519;SDS011;2782;52.362;10.012;2023-02-28T01:02:41;1.48;;;1.08;;
5519;SDS011;2782;52.362;10.012;2023-02-28T01:03:42;2.10;;;1.20;;
5519;SDS011;2782;52.362;10.012;2023-02-28T01:04:44;1.77;;;1.23;;
5519;SDS011;2782;52.362;10.012;2023-02-28T01:05:45;1.13;;;0.80;;
5519;SDS011;2782;52.362;10.012;2023-02-28T01:06:47;1.33;;;1.00;;
5519;SDS011;2782;52.362;10.012;2023-02-28T01:07:49;3.73;;;1.03;;
5519;SDS011;2782;52.362;10.012;2023-02-28T01:08:50;2.25;;;1.20;;
5519;SDS011;2782;52.362;10.012;2023-02-28T01:09:51;1.17;;;1.07;;
5519;SDS011;2782;52.362;10.012;2023-02-28T01:10:53;1.70;;;1.15;;
5519;SDS011;2782;52.362;10.012;2023-02-28T01:11:54;2.45;;;1.23;;
5519;SDS011;2782;52.362;10.012;2023-02-28T01:12:55;1.10;;;0.85;;
5519;SDS011;2782;52.362;10.012;2023-02-28T01:13:56;1.30;;;1.20;;
5519;SDS011;2782;52.362;10.012;2023-02-28T01:14:58;1.30;;;1.20;;
5519;SDS011;2782;52.362;10.012;2023-02-28T01:15:58;0.77;;;0.67;;
5519;SDS011;2782;52.362;10.012;2023-02-28T01:17:00;1.85;;;1.30;;
5519;SDS011;2782;52.362;10.012;2023-02-28T01:18:01;1.27;;;1.13;;
5519;SDS011;2782;52.362;10.012;2023-02-28T01:19:02;1.17;;;1.08;;
5519;SDS011;2782;52.362;10.012;2023-02-28T01:20:03;1.10;;;1.00;;
5519;SDS011;2782;52.362;10.012;2023-02-28T01:21:06;1.20;;;1.00;;
5519;SDS011;2782;52.362;10.012;2023-02-28T01:22:07;1.23;;;1.05;;
5519;SDS011;2782;52.362;10.012;2023-02-28T01:23:10;1.20;;;1.10;;
5519;SDS011;2782;52.362;10.012;2023-02-28T01:24:11;1.95;;;1.50;;
5519;SDS011;2782;52.362;10.012;2023-02-28T01:25:12;1.25;;;1.10;;
5519;SDS011;2782;52.362;10.012;2023-02-28T01:26:14;2.10;;;0.90;;
5519;SDS011;2782;52.362;10.012;2023-02-28T01:27:16;1.52;;;1.25;;
5519;SDS011;2782;52.362;10.012;2023-02-28T01:28:17;1.13;;;0.70;;
5519;SDS011;2782;52.362;10.012;2023-02-28T01:29:19;3.20;;;1.30;;
5519;SDS011;2782;52.362;10.012;2023-02-28T01:30:19;1.47;;;1.13;;
5519;SDS011;2782;52.362;10.012;2023-02-28T01:31:21;1.88;;;1.10;;
5519;SDS011;2782;52.362;10.012;2023-02-28T01:32:23;1.23;;;1.10;;
5519;SDS011;2782;52.362;10.012;2023-02-28T01:33:24;1.17;;;0.98;;
5519;SDS011;2782;52.362;10.012;2023-02-28T01:34:25;1.30;;;1.17;;
5519;SDS011;2782;52.362;10.012;2023-02-28T01:35:27;2.60;;;1.30;;
5519;SDS011;2782;52.362;10.012;2023-02-28T01:36:28;2.47;;;0.90;;
5519;SDS011;2782;52.362;10.012;2023-02-28T01:37:30;1.33;;;1.10;;
5519;SDS011;2782;52.362;10.012;2023-02-28T01:38:32;1.13;;;0.90;;
5519;SDS011;2782;52.362;10.012;2023-02-28T01:39:34;1.83;;;1.15;;
5519;SDS011;2782;52.362;10.012;2023-02-28T01:40:34;2.20;;;1.37;;
5519;SDS011;2782;52.362;10.012;2023-02-28T01:41:36;1.55;;;1.38;;
5519;SDS011;2782;52.362;10.012;2023-02-28T01:42:38;1.13;;;1.03;;
5519;SDS011;2782;52.362;10.012;2023-02-28T01:43:52;1.73;;;1.25;;
5519;SDS011;2782;52.362;10.012;2023-02-28T01:44:59;1.10;;;1.00;;
5519;SDS011;2782;52.362;10.012;2023-02-28T01:46:03;1.35;;;1.20;;
5519;SDS011;2782;52.362;10.012;2023-02-28T01:47:04;1.10;;;1.00;;
5519;SDS011;2782;52.362;10.012;2023-02-28T01:48:07;1.63;;;1.30;;
5519;SDS011;2782;52.362;10.012;2023-02-28T01:49:09;1.42;;;0.80;;
5519;SDS011;2782;52.362;10.012;2023-02-28T01:50:15;1.67;;;1.10;;
5519;SDS011;2782;52.362;10.012;2023-02-28T01:51:19;1.10;;;1.00;;
5519;SDS011;2782;52.362;10.012;2023-02-28T01:52:24;1.02;;;0.80;;
5519;SDS011;2782;52.362;10.012;2023-02-28T01:53:26;1.23;;;0.88;;
5519;SDS011;2782;52.362;10.012;2023-02-28T01:54:34;1.35;;;1.10;;
5519;SDS011;2782;52.362;10.012;2023-02-28T01:55:35;1.20;;;1.10;;
5519;SDS011;2782;52.362;10.012;2023-02-28T01:56:37;1.38;;;1.27;;
5519;SDS011;2782;52.362;10.012;2023-02-28T01:57:39;2.47;;;1.50;;
5519;SDS011;2782;52.362;10.012;2023-02-28T01:58:44;1.30;;;1.10;;
5519;SDS011;2782;52.362;10.012;2023-02-28T01:59:46;1.38;;;1.27;;
5519;SDS011;2782;52.362;10.012;2023-02-28T02:00:52;1.52;;;1.42;;
5519;SDS011;2782;52.362;10.012;2023-02-28T02:01:52;1.47;;;1.10;;
5519;SDS011;2782;52.362;10.012;2023-02-28T02:02:57;1.45;;;1.02;;
5519;SDS011;2782;52.362;10.012;2023-02-28T02:04:00;1.70;;;1.05;;
5519;SDS011;2782;52.362;10.012;2023-02-28T02:05:05;2.53;;;1.25;;
5519;SDS011;2782;52.362;10.012;2023-02-28T02:06:08;1.88;;;1.45;;
5519;SDS011;2782;52.362;10.012;2023-02-28T02:07:10;1.42;;;1.08;;
5519;SDS011;2782;52.362;10.012;2023-02-28T02:08:12;2.00;;;1.58;;
5519;SDS011;2782;52.362;10.012;2023-02-28T02:09:17;1.25;;;1.10;;
5519;SDS011;2782;52.362;10.012;2023-02-28T02:10:19;1.63;;;1.40;;
5519;SDS011;2782;52.362;10.012;2023-02-28T02:11:25;1.65;;;1.13;;
5519;SDS011;2782;52.362;10.012;2023-02-28T02:12:43;1.50;;;1.40;;
5519;SDS011;2782;52.362;10.012;2023-02-28T02:14:12;1.40;;;1.05;;
5519;SDS011;2782;52.362;10.012;2023-02-28T02:15:40;2.20;;;1.00;;
5519;SDS011;2782;52.362;10.012;2023-02-28T02:16:51;1.30;;;1.20;;
5519;SDS011;2782;52.362;10.012;2023-02-28T02:18:03;1.63;;;1.20;;
5519;SDS011;2782;52.362;10.012;2023-02-28T02:19:15;1.30;;;1.20;;
5519;SDS011;2782;52.362;10.012;2023-02-28T02:20:46;1.20;;;1.10;;
5519;SDS011;2782;52.362;10.012;2023-02-28T02:22:30;1.40;;;1.30;;
5519;SDS011;2782;52.362;10.012;2023-02-28T02:24:07;1.02;;;0.82;;
5519;SDS011;2782;52.362;10.012;2023-02-28T02:25:29;0.98;;;0.88;;
5519;SDS011;2782;52.362;10.012;2023-02-28T02:30:00;1.10;;;1.00;;
5519;SDS011;2782;52.362;10.012;2023-02-28T02:33:06;2.22;;;1.40;;
5519;SDS011;2782;52.362;10.012;2023-02-28T02:35:56;1.02;;;1.00;;
5519;SDS011;2782;52.362;10.012;2023-02-28T02:37:04;1.60;;;0.93;;
5519;SDS011;2782;52.362;10.012;2023-02-28T02:38:15;1.33;;;1.02;;
5519;SDS011;2782;52.362;10.012;2023-02-28T02:39:24;1.35;;;1.20;;
5519;SDS011;2782;52.362;10.012;2023-02-28T02:40:33;1.05;;;0.95;;
5519;SDS011;2782;52.362;10.012;2023-02-28T02:41:39;1.45;;;1.35;;
5519;SDS011;2782;52.362;10.012;2023-02-28T02:42:49;2.08;;;1.20;;
5519;SDS011;2782;52.362;10.012;2023-02-28T02:43:52;1.33;;;1.00;;
5519;SDS011;2782;52.362;10.012;2023-02-28T02:44:58;2.80;;;1.00;;
5519;SDS011;2782;52.362;10.012;2023-02-28T02:46:02;1.17;;;1.05;;
5519;SDS011;2782;52.362;10.012;2023-02-28T02:47:10;1.27;;;1.17;;
5519;SDS011;2782;52.362;10.012;2023-02-28T02:48:16;1.70;;;0.90;;
5519;SDS011;2782;52.362;10.012;2023-02-28T02:49:21;1.45;;;1.35;;
5519;SDS011;2782;52.362;10.012;2023-02-28T02:50:26;1.30;;;1.20;;
5519;SDS011;2782;52.362;10.012;2023-02-28T02:51:32;1.55;;;1.02;;
5519;SDS011;2782;52.362;10.012;2023-02-28T02:52:34;1.05;;;0.80;;
5519;SDS011;2782;52.362;10.012;2023-02-28T02:53:40;1.40;;;1.30;;
5519;SDS011;2782;52.362;10.012;2023-02-28T02:54:45;3.42;;;1.40;;
5519;SDS011;2782;52.362;10.012;2023-02-28T02:55:48;1.02;;;0.93;;
5519;SDS011;2782;52.362;10.012;2023-02-28T02:56:54;1.63;;;1.00;;
5519;SDS011;2782;52.362;10.012;2023-02-28T02:57:58;2.72;;;1.23;;
5519;SDS011;2782;52.362;10.012;2023-02-28T02:59:02;1.60;;;1.10;;
5519;SDS011;2782;52.362;10.012;2023-02-28T03:00:08;1.50;;;1.05;;
5519;SDS011;2782;52.362;10.012;2023-02-28T03:01:10;1.50;;;1.15;;
5519;SDS011;2782;52.362;10.012;2023-02-28T03:04:29;2.45;;;1.20;;
5519;SDS011;2782;52.362;10.012;2023-02-28T03:05:38;1.05;;;0.95;;
5519;SDS011;2782;52.362;10.012;2023-02-28T03:06:42;1.13;;;0.85;;
5519;SDS011;2782;52.362;10.012;2023-02-28T03:07:44;1.33;;;1.10;;
5519;SDS011;2782;52.362;10.012;2023-02-28T03:08:44;1.47;;;1.10;;
5519;SDS011;2782;52.362;10.012;2023-02-28T03:09:50;1.10;;;1.00;;
5519;SDS011;2782;52.362;10.012;2023-02-28T03:10:52;1.10;;;1.00;;
5519;SDS011;2782;52.362;10.012;2023-02-28T03:11:58;1.50;;;1.13;;
5519;SDS011;2782;52.362;10.012;2023-02-28T03:13:05;1.13;;;1.03;;
5519;SDS011;2782;52.362;10.012;2023-02-28T03:14:18;1.05;;;0.95;;
5519;SDS011;2782;52.362;10.012;2023-02-28T03:15:29;1.02;;;0.93;;
5519;SDS011;2782;52.362;10.012;2023-02-28T03:16:42;1.02;;;1.02;;
5519;SDS011;2782;52.362;10.012;2023-02-28T03:18:01;2.15;;;1.30;;
5519;SDS011;2782;52.362;10.012;2023-02-28T03:19:18;1.45;;;1.35;;
5519;SDS011;2782;52.362;10.012;2023-02-28T03:20:36;1.00;;;0.90;;
5519;SDS011;2782;52.362;10.012;2023-02-28T03:21:43;1.50;;;1.20;;
5519;SDS011;2782;52.362;10.012;2023-02-28T03:22:51;1.13;;;1.00;;
5519;SDS011;2782;52.362;10.012;2023-02-28T03:23:58;1.20;;;1.10;;
5519;SDS011;2782;52.362;10.012;2023-02-28T03:25:06;2.55;;;1.10;;
5519;SDS011;2782;52.362;10.012;2023-02-28T03:26:12;1.35;;;1.25;;
5519;SDS011;2782;52.362;10.012;2023-02-28T03:27:20;1.38;;;1.00;;
5519;SDS011;2782;52.362;10.012;2023-02-28T03:28:28;1.10;;;0.80;;
5519;SDS011;2782;52.362;10.012;2023-02-28T03:29:35;1.67;;;1.05;;
5519;SDS011;2782;52.362;10.012;2023-02-28T03:30:41;1.10;;;1.00;;
5519;SDS011;2782;52.362;10.012;2023-02-28T03:31:48;1.20;;;1.10;;
5519;SDS011;2782;52.362;10.012;2023-02-28T03:32:52;1.10;;;1.00;;
5519;SDS011;2782;52.362;10.012;2023-02-28T03:33:59;1.52;;;1.10;;
5519;SDS011;2782;52.362;10.012;2023-02-28T03:35:06;1.65;;;1.30;;
5519;SDS011;2782;52.362;10.012;2023-02-28T03:36:13;1.60;;;1.20;;
5519;SDS011;2782;52.362;10.012;2023-02-28T03:37:18;1.10;;;1.00;;
5519;SDS011;2782;52.362;10.012;2023-02-28T03:38:24;0.90;;;0.88;;
5519;SDS011;2782;52.362;10.012;2023-02-28T03:39:31;1.63;;;1.08;;
5519;SDS011;2782;52.362;10.012;2023-02-28T03:40:37;1.35;;;1.25;;
5519;SDS011;2782;52.362;10.012;2023-02-28T03:41:42;1.58;;;1.17;;
5519;SDS011;2782;52.362;10.012;2023-02-28T03:42:48;0.90;;;0.75;;
5519;SDS011;2782;52.362;10.012;2023-02-28T03:43:53;1.63;;;1.10;;
5519;SDS011;2782;52.362;10.012;2023-02-28T03:44:57;1.52;;;1.05;;
5519;SDS011;2782;52.362;10.012;2023-02-28T03:46:01;1.13;;;0.90;;
5519;SDS011;2782;52.362;10.012;2023-02-28T03:47:08;0.90;;;0.90;;
5519;SDS011;2782;52.362;10.012;2023-02-28T03:48:13;1.33;;;1.10;;
5519;SDS011;2782;52.362;10.012;2023-02-28T03:49:19;2.60;;;0.80;;
5519;SDS011;2782;52.362;10.012;2023-02-28T03:50:25;1.30;;;1.20;;
5519;SDS011;2782;52.362;10.012;2023-02-28T03:51:32;0.90;;;0.80;;
5519;SDS011;2782;52.362;10.012;2023-02-28T03:52:36;1.23;;;0.90;;
5519;SDS011;2782;52.362;10.012;2023-02-28T03:53:45;1.20;;;1.00;;
5519;SDS011;2782;52.362;10.012;2023-02-28T03:54:50;0.85;;;0.85;;
5519;SDS011;2782;52.362;10.012;2023-02-28T03:55:56;1.60;;;0.82;;
5519;SDS011;2782;52.362;10.012;2023-02-28T03:57:02;1.08;;;0.80;;
5519;SDS011;2782;52.362;10.012;2023-02-28T03:58:11;3.10;;;1.23;;
5519;SDS011;2782;52.362;10.012;2023-02-28T03:59:16;1.10;;;0.70;;
5519;SDS011;2782;52.362;10.012;2023-02-28T04:00:24;1.42;;;1.33;;
5519;SDS011;2782;52.362;10.012;2023-02-28T04:01:30;0.90;;;0.77;;
5519;SDS011;2782;52.362;10.012;2023-02-28T04:02:34;1.88;;;1.20;;
5519;SDS011;2782;52.362;10.012;2023-02-28T04:03:35;1.40;;;1.10;;
5519;SDS011;2782;52.362;10.012;2023-02-28T04:04:38;1.00;;;0.90;;
5519;SDS011;2782;52.362;10.012;2023-02-28T04:05:49;1.15;;;1.05;;
5519;SDS011;2782;52.362;10.012;2023-02-28T04:06:52;0.88;;;0.80;;
5519;SDS011;2782;52.362;10.012;2023-02-28T04:08:04;2.03;;;0.90;;
5519;SDS011;2782;52.362;10.012;2023-02-28T04:09:06;1.10;;;1.00;;
5519;SDS011;2782;52.362;10.012;2023-02-28T04:10:09;1.20;;;1.10;;
5519;SDS011;2782;52.362;10.012;2023-02-28T04:11:15;1.58;;;1.20;;
5519;SDS011;2782;52.362;10.012;2023-02-28T04:12:23;1.88;;;1.20;;
5519;SDS011;2782;52.362;10.012;2023-02-28T04:13:24;1.17;;;1.08;;
5519;SDS011;2782;52.362;10.012;2023-02-28T04:14:26;2.28;;;1.05;;
5519;SDS011;2782;52.362;10.012;2023-02-28T04:15:26;3.20;;;1.20;;
5519;SDS011;2782;52.362;10.012;2023-02-28T04:16:28;1.40;;;0.90;;
5519;SDS011;2782;52.362;10.012;2023-02-28T04:17:29;1.00;;;0.70;;
5519;SDS011;2782;52.362;10.012;2023-02-28T04:18:31;1.63;;;1.10;;
5519;SDS011;2782;52.362;10.012;2023-02-28T04:19:31;1.70;;;1.20;;
5519;SDS011;2782;52.362;10.012;2023-02-28T04:20:33;1.10;;;1.00;;
5519;SDS011;2782;52.362;10.012;2023-02-28T04:21:34;1.30;;;0.90;;
5519;SDS011;2782;52.362;10.012;2023-02-28T04:22:40;1.05;;;0.95;;
5519;SDS011;2782;52.362;10.012;2023-02-28T04:23:40;1.20;;;1.10;;
5519;SDS011;2782;52.362;10.012;2023-02-28T04:24:42;0.93;;;0.80;;
5519;SDS011;2782;52.362;10.012;2023-02-28T04:25:43;0.93;;;0.83;;
5519;SDS011;2782;52.362;10.012;2023-02-28T04:26:45;1.10;;;1.00;;
5519;SDS011;2782;52.362;10.012;2023-02-28T04:27:47;1.63;;;0.80;;
5519;SDS011;2782;52.362;10.012;2023-02-28T04:28:48;1.35;;;1.10;;
5519;SDS011;2782;52.362;10.012;2023-02-28T04:29:49;1.50;;;1.20;;
5519;SDS011;2782;52.362;10.012;2023-02-28T04:30:53;1.10;;;0.95;;
5519;SDS011;2782;52.362;10.012;2023-02-28T04:31:55;1.65;;;1.20;;
5519;SDS011;2782;52.362;10.012;2023-02-28T04:32:59;0.80;;;0.77;;
5519;SDS011;2782;52.362;10.012;2023-02-28T04:34:00;0.93;;;0.82;;
5519;SDS011;2782;52.362;10.012;2023-02-28T04:35:02;1.67;;;1.08;;
5519;SDS011;2782;52.362;10.012;2023-02-28T04:36:04;1.00;;;0.75;;
5519;SDS011;2782;52.362;10.012;2023-02-28T04:37:07;1.13;;;1.10;;
5519;SDS011;2782;52.362;10.012;2023-02-28T04:38:10;1.02;;;0.95;;
5519;SDS011;2782;52.362;10.012;2023-02-28T04:39:10;1.27;;;0.93;;
5519;SDS011;2782;52.362;10.012;2023-02-28T04:40:12;1.95;;;1.25;;
5519;SDS011;2782;52.362;10.012;2023-02-28T04:41:13;2.10;;;0.90;;
5519;SDS011;2782;52.362;10.012;2023-02-28T04:42:14;0.98;;;0.90;;
5519;SDS011;2782;52.362;10.012;2023-02-28T04:43:15;1.03;;;0.93;;
5519;SDS011;2782;52.362;10.012;2023-02-28T04:44:17;1.55;;;1.20;;
5519;SDS011;2782;52.362;10.012;2023-02-28T04:45:17;1.20;;;1.07;;
5519;SDS011;2782;52.362;10.012;2023-02-28T04:46:19;1.27;;;1.17;;
5519;SDS011;2782;52.362;10.012;2023-02-28T04:47:20;0.80;;;0.80;;
5519;SDS011;2782;52.362;10.012;2023-02-28T04:48:22;1.48;;;1.00;;
5519;SDS011;2782;52.362;10.012;2023-02-28T04:49:23;1.02;;;0.93;;
5519;SDS011;2782;52.362;10.012;2023-02-28T04:50:25;1.42;;;1.10;;
5519;SDS011;2782;52.362;10.012;2023-02-28T04:51:25;1.43;;;1.07;;
5519;SDS011;2782;52.362;10.012;2023-02-28T04:52:27;0.85;;;0.80;;
5519;SDS011;2782;52.362;10.012;2023-02-28T04:53:29;1.83;;;1.10;;
5519;SDS011;2782;52.362;10.012;2023-02-28T04:54:31;1.60;;;1.10;;
5519;SDS011;2782;52.362;10.012;2023-02-28T04:55:33;1.25;;;1.15;;
5519;SDS011;2782;52.362;10.012;2023-02-28T04:56:34;0.90;;;0.77;;
5519;SDS011;2782;52.362;10.012;2023-02-28T04:57:35;3.22;;;1.35;;
5519;SDS011;2782;52.362;10.012;2023-02-28T04:58:37;1.10;;;0.93;;
5519;SDS011;2782;52.362;10.012;2023-02-28T04:59:39;1.25;;;0.90;;
5519;SDS011;2782;52.362;10.012;2023-02-28T05:00:40;1.47;;;0.90;;
5519;SDS011;2782;52.362;10.012;2023-02-28T05:01:45;1.42;;;1.27;;
5519;SDS011;2782;52.362;10.012;2023-02-28T05:02:49;1.13;;;1.02;;
5519;SDS011;2782;52.362;10.012;2023-02-28T05:03:53;0.90;;;0.90;;
5519;SDS011;2782;52.362;10.012;2023-02-28T05:04:55;1.20;;;1.10;;
5519;SDS011;2782;52.362;10.012;2023-02-28T05:05:56;1.10;;;0.90;;
5519;SDS011;2782;52.362;10.012;2023-02-28T05:06:57;1.13;;;1.03;;
5519;SDS011;2782;52.362;10.012;2023-02-28T05:07:58;1.55;;;1.00;;
5519;SDS011;2782;52.362;10.012;2023-02-28T05:09:01;0.70;;;0.70;;
5519;SDS011;2782;52.362;10.012;2023-02-28T05:10:03;1.50;;;1.05;;
5519;SDS011;2782;52.362;10.012;2023-02-28T05:11:05;1.40;;;1.23;;
5519;SDS011;2782;52.362;10.012;2023-02-28T05:12:08;1.25;;;0.90;;
5519;SDS011;2782;52.362;10.012;2023-02-28T05:13:09;1.73;;;1.30;;
5519;SDS011;2782;52.362;10.012;2023-02-28T05:14:13;1.10;;;0.90;;
5519;SDS011;2782;52.362;10.012;2023-02-28T05:15:14;1.17;;;0.90;;
5519;SDS011;2782;52.362;10.012;2023-02-28T05:16:17;1.65;;;1.10;;
5519;SDS011;2782;52.362;10.012;2023-02-28T05:17:18;1.00;;;0.90;;
5519;SDS011;2782;52.362;10.012;2023-02-28T05:18:19;1.25;;;1.10;;
5519;SDS011;2782;52.362;10.012;2023-02-28T05:19:20;3.03;;;1.33;;
5519;SDS011;2782;52.362;10.012;2023-02-28T05:20:22;1.00;;;0.90;;
5519;SDS011;2782;52.362;10.012;2023-02-28T05:21:24;1.30;;;0.87;;
5519;SDS011;2782;52.362;10.012;2023-02-28T05:22:28;2.20;;;1.30;;
5519;SDS011;2782;52.362;10.012;2023-02-28T05:23:29;1.03;;;1.00;;
5519;SDS011;2782;52.362;10.012;2023-02-28T05:24:32;1.13;;;1.02;;
5519;SDS011;2782;52.362;10.012;2023-02-28T05:25:33;1.15;;;1.05;;
5519;SDS011;2782;52.362;10.012;2023-02-28T05:26:34;1.63;;;1.07;;
5519;SDS011;2782;52.362;10.012;2023-02-28T05:27:36;1.33;;;1.10;;
5519;SDS011;2782;52.362;10.012;2023-02-28T05:28:37;1.17;;;0.90;;
5519;SDS011;2782;52.362;10.012;2023-02-28T05:29:39;1.08;;;0.70;;
5519;SDS011;2782;52.362;10.012;2023-02-28T05:30:43;2.75;;;0.93;;
5519;SDS011;2782;52.362;10.012;2023-02-28T05:31:43;1.00;;;0.87;;
5519;SDS011;2782;52.362;10.012;2023-02-28T05:32:48;1.15;;;0.88;;
5519;SDS011;2782;52.362;10.012;2023-02-28T05:33:50;1.65;;;1.10;;
5519;SDS011;2782;52.362;10.012;2023-02-28T05:34:52;1.52;;;1.10;;
5519;SDS011;2782;52.362;10.012;2023-02-28T05:35:53;0.97;;;0.87;;
5519;SDS011;2782;52.362;10.012;2023-02-28T05:36:54;1.10;;;1.00;;
5519;SDS011;2782;52.362;10.012;2023-02-28T05:37:55;1.83;;;1.00;;
5519;SDS011;2782;52.362;10.012;2023-02-28T05:38:57;1.95;;;1.23;;
5519;SDS011;2782;52.362;10.012;2023-02-28T05:39:58;2.13;;;1.30;;
5519;SDS011;2782;52.362;10.012;2023-02-28T05:41:04;1.40;;;1.13;;
5519;SDS011;2782;52.362;10.012;2023-02-28T05:42:05;1.30;;;1.20;;
5519;SDS011;2782;52.362;10.012;2023-02-28T05:43:09;3.70;;;1.30;;
5519;SDS011;2782;52.362;10.012;2023-02-28T05:44:11;3.08;;;1.35;;
5519;SDS011;2782;52.362;10.012;2023-02-28T05:45:13;1.73;;;0.85;;
5519;SDS011;2782;52.362;10.012;2023-02-28T05:46:14;4.67;;;1.20;;
5519;SDS011;2782;52.362;10.012;2023-02-28T05:47:16;1.30;;;1.20;;
5519;SDS011;2782;52.362;10.012;2023-02-28T05:48:17;4.13;;;1.00;;
5519;SDS011;2782;52.362;10.012;2023-02-28T05:49:19;3.70;;;1.30;;
5519;SDS011;2782;52.362;10.012;2023-02-28T05:50:20;8.05;;;1.63;;
5519;SDS011;2782;52.362;10.012;2023-02-28T05:51:21;2.07;;;1.30;;
5519;SDS011;2782;52.362;10.012;2023-02-28T05:52:22;3.88;;;1.58;;
5519;SDS011;2782;52.362;10.012;2023-02-28T05:53:23;6.70;;;1.70;;
5519;SDS011;2782;52.362;10.012;2023-02-28T05:54:26;3.53;;;1.70;;
5519;SDS011;2782;52.362;10.012;2023-02-28T05:55:28;6.87;;;2.10;;
5519;SDS011;2782;52.362;10.012;2023-02-28T05:56:29;3.55;;;1.60;;
5519;SDS011;2782;52.362;10.012;2023-02-28T05:57:30;8.83;;;2.10;;
5519;SDS011;2782;52.362;10.012;2023-02-28T05:58:32;6.90;;;2.28;;
5519;SDS011;2782;52.362;10.012;2023-02-28T05:59:34;5.18;;;2.03;;
5519;SDS011;2782;52.362;10.012;2023-02-28T06:00:39;8.77;;;2.28;;
5519;SDS011;2782;52.362;10.012;2023-02-28T06:01:40;3.70;;;2.07;;
5519;SDS011;2782;52.362;10.012;2023-02-28T06:02:47;5.90;;;1.58;;
5519;SDS011;2782;52.362;10.012;2023-02-28T06:03:48;9.83;;;2.60;;
5519;SDS011;2782;52.362;10.012;2023-02-28T06:04:50;10.30;;;1.95;;
5519;SDS011;2782;52.362;10.012;2023-02-28T06:05:52;13.85;;;1.80;;
5519;SDS011;2782;52.362;10.012;2023-02-28T06:06:53;3.92;;;1.50;;
5519;SDS011;2782;52.362;10.012;2023-02-28T06:07:57;8.02;;;2.10;;
5519;SDS011;2782;52.362;10.012;2023-02-28T06:08:58;9.27;;;1.97;;
5519;SDS011;2782;52.362;10.012;2023-02-28T06:09:59;6.13;;;2.03;;
5519;SDS011;2782;52.362;10.012;2023-02-28T06:11:03;3.27;;;1.77;;
5519;SDS011;2782;52.362;10.012;2023-02-28T06:12:06;9.23;;;2.10;;
5519;SDS011;2782;52.362;10.012;2023-02-28T06:13:11;4.45;;;2.00;;
5519;SDS011;2782;52.362;10.012;2023-02-28T06:14:14;11.55;;;2.35;;
5519;SDS011;2782;52.362;10.012;2023-02-28T06:15:16;3.25;;;1.90;;
5519;SDS011;2782;52.362;10.012;2023-02-28T06:16:17;4.05;;;1.98;;
5519;SDS011;2782;52.362;10.012;2023-02-28T06:17:18;6.27;;;1.87;;
5519;SDS011;2782;52.362;10.012;2023-02-28T06:18:20;3.35;;;1.90;;
5519;SDS011;2782;52.362;10.012;2023-02-28T06:19:20;4.83;;;1.80;;
5519;SDS011;2782;52.362;10.012;2023-02-28T06:20:25;7.25;;;2.40;;
5519;SDS011;2782;52.362;10.012;2023-02-28T06:21:29;5.13;;;2.70;;
5519;SDS011;2782;52.362;10.012;2023-02-28T06:22:31;8.13;;;3.80;;
5519;SDS011;2782;52.362;10.012;2023-02-28T06:23:31;11.87;;;4.20;;
5519;SDS011;2782;52.362;10.012;2023-02-28T06:24:33;11.63;;;4.80;;
5519;SDS011;2782;52.362;10.012;2023-02-28T06:25:33;11.33;;;5.57;;
5519;SDS011;2782;52.362;10.012;2023-02-28T06:26:36;12.30;;;7.35;;
5519;SDS011;2782;52.362;10.012;2023-02-28T06:27:37;9.30;;;6.57;;
5519;SDS011;2782;52.362;10.012;2023-02-28T06:28:39;14.13;;;7.57;;
5519;SDS011;2782;52.362;10.012;2023-02-28T06:29:40;13.03;;;7.10;;
5519;SDS011;2782;52.362;10.012;2023-02-28T06:30:42;18.88;;;7.30;;
5519;SDS011;2782;52.362;10.012;2023-02-28T06:31:42;14.17;;;7.93;;
5519;SDS011;2782;52.362;10.012;2023-02-28T06:32:44;13.38;;;7.43;;
5519;SDS011;2782;52.362;10.012;2023-02-28T06:33:46;12.17;;;6.70;;
5519;SDS011;2782;52.362;10.012;2023-02-28T06:34:48;15.55;;;6.90;;
5519;SDS011;2782;52.362;10.012;2023-02-28T06:35:49;10.13;;;7.00;;
5519;SDS011;2782;52.362;10.012;2023-02-28T06:36:51;13.73;;;6.97;;
5519;SDS011;2782;52.362;10.012;2023-02-28T06:37:53;17.98;;;7.88;;
5519;SDS011;2782;52.362;10.012;2023-02-28T06:38:54;14.18;;;7.80;;